Time;durP1;ratioP1;P1;durP2;ratioP2;P2;SDS_P1;SDS_P2;PMS_P1;PMS_P2;Temp;Humidity;BMP_temperature;BMP_pressure;BME280_temperature;BME280_humidity;BME280_pressure;Samples;Min_cycle;Max_cycle;Signal;HPM_P1;HPM_P2
2023/10/30 00:00:19;;;;;;;4.00;0.90;;;;;;;12.68;78.59;99278.69;5003905;28;20214;-82
2023/10/30 00:02:46;;;;;;;2.77;0.70;;;;;;;12.65;78.40;99270.94;4997115;28;20210;-82
2023/10/30 00:05:12;;;;;;;4.90;1.30;;;;;;;12.68;78.31;99277.84;5005665;28;20207;-82
2023/10/30 00:07:39;;;;;;;3.57;1.03;;;;;;;12.71;78.21;99277.56;5000378;28;20240;-82
2023/10/30 00:10:07;;;;;;;4.03;1.53;;;;;;;12.69;78.25;99283.03;4998351;28;20215;-80
2023/10/30 00:12:34;;;;;;;2.27;0.60;;;;;;;12.63;78.53;99286.28;5005354;28;20638;-82
2023/10/30 00:15:03;;;;;;;4.53;1.40;;;;;;;12.62;78.80;99295.28;5006340;28;20211;-83
2023/10/30 00:17:30;;;;;;;3.80;1.13;;;;;;;12.59;79.26;99300.06;5002045;28;20207;-82
2023/10/30 00:19:56;;;;;;;3.93;1.33;;;;;;;12.56;79.29;99303.84;5006587;28;20210;-81
2023/10/30 00:22:23;;;;;;;5.10;1.17;;;;;;;12.52;79.68;99313.16;5003010;28;20218;-80
2023/10/30 00:24:49;;;;;;;5.43;1.00;;;;;;;12.52;79.49;99303.31;5001531;28;20240;-81
2023/10/30 00:27:16;;;;;;;3.40;1.00;;;;;;;12.54;78.97;99297.00;5003994;28;20222;-83
2023/10/30 00:29:44;;;;;;;5.73;0.97;;;;;;;12.52;79.27;99300.63;5002656;28;20254;-81
2023/10/30 00:32:10;;;;;;;4.27;1.20;;;;;;;12.52;78.99;99305.97;5002382;28;20229;-81
2023/10/30 00:34:37;;;;;;;5.43;1.57;;;;;;;12.52;79.05;99311.31;5004626;28;20226;-81
2023/10/30 00:37:04;;;;;;;4.30;0.93;;;;;;;12.56;78.88;99317.19;5004196;28;20239;-81
2023/10/30 00:39:32;;;;;;;3.57;1.23;;;;;;;12.54;79.33;99305.00;5004483;28;20208;-80
2023/10/30 00:41:59;;;;;;;4.87;1.10;;;;;;;12.56;79.12;99311.00;5007276;28;20214;-83
2023/10/30 00:44:26;;;;;;;3.07;0.60;;;;;;;12.58;79.03;99315.22;4998751;28;20207;-82
2023/10/30 00:46:54;;;;;;;5.03;0.90;;;;;;;12.58;79.15;99330.41;5010546;28;20227;-81
2023/10/30 00:49:21;;;;;;;4.70;0.93;;;;;;;12.56;79.45;99337.72;5005098;28;20286;-81
2023/10/30 00:51:47;;;;;;;3.90;1.10;;;;;;;12.52;79.81;99340.69;5002724;28;20280;-82
2023/10/30 00:54:14;;;;;;;3.23;0.90;;;;;;;12.48;80.28;99339.28;5003427;28;20222;-81
2023/10/30 00:56:40;;;;;;;1.77;0.70;;;;;;;12.51;80.02;99340.84;5001020;28;20230;-82
2023/10/30 00:59:07;;;;;;;5.27;0.90;;;;;;;12.49;80.37;99342.81;5005170;28;20217;-82
2023/10/30 01:01:33;;;;;;;1.43;0.67;;;;;;;12.46;80.12;99353.75;4999715;28;20216;-81
2023/10/30 01:04:01;;;;;;;3.20;0.90;;;;;;;12.44;80.70;99345.03;5004340;28;20203;-82
2023/10/30 01:06:28;;;;;;;2.77;0.90;;;;;;;12.45;80.79;99358.25;5009196;28;20318;-81
2023/10/30 01:08:54;;;;;;;5.27;2.10;;;;;;;12.43;81.07;99357.56;5017492;28;20226;-81
2023/10/30 01:11:21;;;;;;;4.30;1.47;;;;;;;12.43;81.30;99362.03;4999540;28;20214;-81
2023/10/30 01:13:47;;;;;;;5.20;1.40;;;;;;;12.43;81.59;99367.38;5004328;28;20234;-82
2023/10/30 01:16:13;;;;;;;3.73;0.90;;;;;;;12.39;81.57;99363.31;5004412;28;20797;-83
2023/10/30 01:18:40;;;;;;;3.07;0.80;;;;;;;12.42;81.80;99369.22;5010197;28;20211;-82
2023/10/30 01:21:10;;;;;;;4.27;0.97;;;;;;;12.40;81.89;99359.66;4997546;28;20749;-81
2023/10/30 01:23:37;;;;;;;4.17;1.10;;;;;;;12.38;82.25;99367.78;5008184;28;20203;-81
2023/10/30 01:26:04;;;;;;;3.70;1.00;;;;;;;12.35;82.22;99373.44;5000799;28;20236;-81
2023/10/30 01:28:30;;;;;;;3.77;0.70;;;;;;;12.33;82.62;99372.75;5007388;28;20545;-81
2023/10/30 01:30:57;;;;;;;3.87;0.80;;;;;;;12.30;82.70;99378.34;5000758;28;20215;-82
2023/10/30 01:33:24;;;;;;;4.03;1.13;;;;;;;12.30;82.87;99372.16;5010912;28;20687;-80
2023/10/30 01:35:51;;;;;;;3.03;1.00;;;;;;;12.26;82.93;99379.59;4996122;28;20322;-82
2023/10/30 01:38:19;;;;;;;1.77;0.93;;;;;;;12.25;83.34;99374.41;5005499;28;20208;-81
2023/10/30 01:40:50;;;;;;;3.83;0.70;;;;;;;12.22;83.93;99375.50;4997405;28;20216;-81
2023/10/30 01:43:17;;;;;;;5.30;0.87;;;;;;;12.21;83.97;99370.31;4995219;28;20581;-81
2023/10/30 01:45:43;;;;;;;4.87;0.80;;;;;;;12.20;84.37;99371.28;4999271;28;20226;-81
2023/10/30 01:48:10;;;;;;;3.17;0.60;;;;;;;12.19;84.33;99375.78;5001919;28;20219;-81
2023/10/30 01:50:38;;;;;;;3.57;1.03;;;;;;;12.16;84.66;99379.59;5002383;28;20202;-81
2023/10/30 01:53:05;;;;;;;3.70;0.90;;;;;;;12.15;84.91;99379.72;5003745;28;20240;-82
2023/10/30 01:55:33;;;;;;;3.23;0.53;;;;;;;12.16;85.18;99376.09;5003520;28;20251;-81
2023/10/30 01:58:00;;;;;;;2.37;0.70;;;;;;;12.14;85.46;99375.38;4998329;28;20206;-80
2023/10/30 02:00:28;;;;;;;3.73;0.90;;;;;;;12.15;85.37;99377.06;5001718;28;20675;-82
2023/10/30 02:02:56;;;;;;;3.80;1.30;;;;;;;12.07;85.64;99376.91;5004484;28;20207;-79
2023/10/30 02:05:23;;;;;;;4.57;0.73;;;;;;;12.02;86.09;99369.28;5001814;28;20257;-82
2023/10/30 02:07:49;;;;;;;3.90;0.90;;;;;;;12.09;86.59;99375.78;5006519;28;20207;-81
2023/10/30 02:10:16;;;;;;;1.77;0.77;;;;;;;12.06;86.70;99364.53;5000692;28;20687;-81
2023/10/30 02:12:48;;;;;;;2.27;0.60;;;;;;;12.06;86.73;99367.19;5004260;28;20591;-81
2023/10/30 02:15:14;;;;;;;2.00;0.63;;;;;;;12.03;86.79;99367.47;5006972;28;20210;-81
2023/10/30 02:17:41;;;;;;;4.73;0.97;;;;;;;12.01;86.74;99362.28;5002004;28;20214;-82
2023/10/30 02:20:08;;;;;;;4.50;1.00;;;;;;;12.02;86.80;99360.44;5002232;28;20604;-82
2023/10/30 02:22:35;;;;;;;3.37;0.80;;;;;;;12.01;87.17;99361.44;5005057;28;20691;-82
2023/10/30 02:25:01;;;;;;;3.97;1.10;;;;;;;12.04;86.68;99354.00;5009182;28;20203;-81
2023/10/30 02:27:29;;;;;;;4.23;1.33;;;;;;;12.05;86.58;99354.84;5002952;28;20237;-82
2023/10/30 02:29:55;;;;;;;4.30;0.70;;;;;;;12.05;86.75;99362.84;5004250;28;20211;-82
2023/10/30 02:32:22;;;;;;;3.27;0.90;;;;;;;12.08;86.35;99355.41;5004863;28;20207;-82
2023/10/30 02:34:48;;;;;;;3.10;0.73;;;;;;;12.03;86.91;99360.31;5004167;28;20225;-81
2023/10/30 02:37:15;;;;;;;3.93;0.80;;;;;;;12.00;87.02;99346.44;5006716;28;20227;-80
2023/10/30 02:39:41;;;;;;;2.93;0.70;;;;;;;11.99;86.93;99356.25;5006352;28;20210;-81
2023/10/30 02:42:08;;;;;;;2.97;0.60;;;;;;;12.03;87.33;99356.81;5001992;28;20588;-81
2023/10/30 02:44:36;;;;;;;2.97;0.90;;;;;;;12.00;87.17;99351.75;4998940;28;20197;-80
2023/10/30 02:47:03;;;;;;;4.73;0.53;;;;;;;12.00;87.49;99344.56;5002540;28;20231;-81
2023/10/30 02:49:30;;;;;;;2.43;0.73;;;;;;;11.99;87.34;99345.59;5000256;28;20304;-83
2023/10/30 02:51:56;;;;;;;6.57;0.93;;;;;;;11.98;87.37;99353.72;5002414;28;20226;-80
2023/10/30 02:54:22;;;;;;;3.30;1.30;;;;;;;11.98;87.69;99351.06;5003438;28;20231;-80
2023/10/30 02:56:49;;;;;;;4.37;0.80;;;;;;;11.97;87.37;99354.69;5004731;28;20230;-80
2023/10/30 02:59:15;;;;;;;2.67;0.53;;;;;;;11.98;87.31;99348.38;4997665;28;20213;-82
2023/10/30 03:01:43;;;;;;;3.10;0.60;;;;;;;11.94;87.75;99346.97;5004498;28;20209;-79
2023/10/30 03:04:12;;;;;;;4.03;1.00;;;;;;;11.93;87.88;99347.94;5008797;28;20210;-81
2023/10/30 03:06:39;;;;;;;3.23;1.00;;;;;;;11.89;87.80;99352.69;5003001;28;20568;-81
2023/10/30 03:09:05;;;;;;;5.30;0.90;;;;;;;11.86;88.42;99350.31;5006099;28;20209;-81
2023/10/30 03:11:32;;;;;;;2.97;1.33;;;;;;;11.87;88.06;99364.50;5010881;28;20210;-82
2023/10/30 03:13:58;;;;;;;5.00;0.93;;;;;;;11.86;88.17;99347.63;5001298;28;20240;-81
2023/10/30 03:16:25;;;;;;;2.27;0.97;;;;;;;11.85;88.36;99348.63;5003502;28;20214;-83
2023/10/30 03:18:53;;;;;;;3.57;1.00;;;;;;;11.89;88.15;99351.84;5019626;28;20201;-83
2023/10/30 03:21:19;;;;;;;3.47;0.67;;;;;;;11.88;87.67;99351.00;5006140;28;20218;-82
2023/10/30 03:23:46;;;;;;;4.63;0.90;;;;;;;11.88;87.87;99337.69;4996656;28;20207;-82
2023/10/30 03:26:12;;;;;;;3.20;1.20;;;;;;;11.86;87.98;99344.13;5007188;28;20588;-82
2023/10/30 03:28:38;;;;;;;2.53;0.90;;;;;;;11.86;88.16;99350.31;4996711;28;20677;-82
2023/10/30 03:31:06;;;;;;;2.73;0.70;;;;;;;11.82;88.16;99344.41;5001566;28;20220;-82
2023/10/30 03:33:32;;;;;;;6.53;1.27;;;;;;;11.81;88.18;99348.06;5003262;28;20275;-82
2023/10/30 03:36:00;;;;;;;1.97;0.70;;;;;;;11.86;88.24;99358.31;4995735;28;20220;-83
2023/10/30 03:38:30;;;;;;;2.97;1.23;;;;;;;11.85;88.05;99359.28;5001391;28;20682;-83
2023/10/30 03:40:57;;;;;;;5.97;1.10;;;;;;;11.83;88.17;99351.41;5003837;28;20300;-82
2023/10/30 03:43:23;;;;;;;3.03;1.00;;;;;;;11.85;88.00;99353.94;5006947;28;20210;-82
2023/10/30 03:45:50;;;;;;;4.10;0.87;;;;;;;11.89;87.88;99365.19;5004911;28;20229;-82
2023/10/30 03:48:16;;;;;;;4.10;0.73;;;;;;;11.86;87.96;99366.31;5007622;28;20224;-80
2023/10/30 03:50:42;;;;;;;3.20;1.03;;;;;;;11.87;87.82;99365.34;5006527;28;20217;-82
2023/10/30 03:53:10;;;;;;;3.83;0.83;;;;;;;11.86;88.10;99368.97;5000497;28;20705;-83
2023/10/30 03:55:37;;;;;;;4.17;0.90;;;;;;;11.85;88.37;99377.13;5002819;28;20237;-81
2023/10/30 03:58:04;;;;;;;3.53;1.00;;;;;;;11.85;87.92;99371.78;5006436;28;20201;-83
2023/10/30 04:00:31;;;;;;;6.53;0.70;;;;;;;11.81;88.13;99368.56;5008287;28;20301;-81
2023/10/30 04:02:57;;;;;;;3.63;0.97;;;;;;;11.83;88.25;99374.59;5000151;28;20770;-82
2023/10/30 04:05:24;;;;;;;5.40;1.10;;;;;;;11.87;88.13;99373.34;5005854;28;20213;-81
2023/10/30 04:07:50;;;;;;;1.77;0.90;;;;;;;11.88;88.06;99379.53;5008638;28;20208;-81
2023/10/30 04:10:18;;;;;;;2.57;0.97;;;;;;;11.87;88.59;99388.50;5005593;28;20221;-83
2023/10/30 04:12:45;;;;;;;4.60;0.90;;;;;;;11.85;88.38;99374.44;4998648;28;20573;-81
2023/10/30 04:15:15;;;;;;;4.27;0.90;;;;;;;11.85;88.68;99374.44;4999361;28;20686;-79
2023/10/30 04:17:41;;;;;;;4.00;0.90;;;;;;;11.84;88.77;99381.59;5005153;28;20302;-81
2023/10/30 04:20:08;;;;;;;3.87;0.80;;;;;;;11.83;88.42;99378.09;5002032;28;20237;-82
2023/10/30 04:22:34;;;;;;;2.50;0.70;;;;;;;11.80;89.14;99378.41;5005660;28;20210;-83
2023/10/30 04:25:01;;;;;;;3.43;0.73;;;;;;;11.79;89.23;99384.72;5006180;28;20203;-82
2023/10/30 04:27:29;;;;;;;5.83;1.07;;;;;;;11.79;89.43;99387.38;5001496;28;20227;-81
2023/10/30 04:29:56;;;;;;;4.17;1.20;;;;;;;11.81;89.37;99379.25;5003703;28;20203;-79
2023/10/30 04:32:22;;;;;;;7.90;1.20;;;;;;;11.83;89.04;99386.09;5003113;28;20209;-82
2023/10/30 04:34:55;;;;;;;4.77;0.90;;;;;;;11.87;89.24;99380.50;5004147;28;20226;-84
2023/10/30 04:37:22;;;;;;;4.90;0.80;;;;;;;11.86;89.59;99376.97;5003633;28;20228;-82
2023/10/30 04:39:49;;;;;;;5.00;0.80;;;;;;;11.85;89.77;99377.97;5007523;28;20260;-82
2023/10/30 04:42:15;;;;;;;3.43;0.63;;;;;;;11.85;89.70;99371.78;5003095;28;20218;-83
2023/10/30 04:44:43;;;;;;;3.30;1.03;;;;;;;11.83;89.41;99366.59;5005991;28;20201;-82
2023/10/30 04:47:10;;;;;;;4.87;1.43;;;;;;;11.85;89.86;99355.78;5002519;28;20229;-81
2023/10/30 04:49:38;;;;;;;3.40;0.83;;;;;;;11.87;89.60;99370.66;4999570;28;20209;-83
2023/10/30 04:52:04;;;;;;;3.77;0.87;;;;;;;11.90;89.66;99364.22;5007083;28;20250;-81
2023/10/30 04:54:31;;;;;;;6.00;1.20;;;;;;;11.90;89.65;99364.22;5003872;28;20248;-82
2023/10/30 04:56:57;;;;;;;7.03;1.00;;;;;;;11.85;89.85;99372.63;4995509;28;20234;-81
2023/10/30 04:59:24;;;;;;;3.47;0.80;;;;;;;11.84;90.51;99376.28;5007209;28;20776;-82
2023/10/30 05:01:52;;;;;;;5.83;1.03;;;;;;;11.88;90.17;99384.84;5001691;28;20210;-82
2023/10/30 05:04:18;;;;;;;6.33;0.97;;;;;;;11.88;89.90;99366.19;5004343;28;20722;-81
2023/10/30 05:06:46;;;;;;;2.57;0.87;;;;;;;11.88;89.98;99363.50;5000522;28;20224;-82
2023/10/30 05:09:13;;;;;;;3.27;0.70;;;;;;;11.91;89.73;99358.75;5009350;28;20305;-82
2023/10/30 05:11:40;;;;;;;4.77;1.00;;;;;;;11.92;89.51;99376.44;5003494;28;20218;-81
2023/10/30 05:14:07;;;;;;;3.93;0.87;;;;;;;11.90;89.40;99367.72;4998901;28;20261;-82
2023/10/30 05:16:35;;;;;;;5.30;0.80;;;;;;;11.92;89.94;99372.94;5012291;28;20234;-82
2023/10/30 05:19:03;;;;;;;5.90;0.83;;;;;;;11.93;89.24;99371.97;5019553;28;20203;-81
2023/10/30 05:21:29;;;;;;;2.43;0.90;;;;;;;11.95;89.39;99362.00;5002770;28;20233;-82
2023/10/30 05:23:56;;;;;;;5.83;1.00;;;;;;;11.94;88.92;99362.97;5015234;28;20210;-81
2023/10/30 05:26:22;;;;;;;3.27;0.93;;;;;;;11.95;89.06;99359.31;5008924;28;20235;-82
2023/10/30 05:28:49;;;;;;;5.43;1.33;;;;;;;11.95;88.96;99357.50;5004688;28;20206;-83
2023/10/30 05:31:15;;;;;;;5.53;1.10;;;;;;;11.97;88.86;99358.22;5001349;28;20223;-82
2023/10/30 05:33:41;;;;;;;5.30;1.27;;;;;;;11.99;88.92;99355.41;4998709;28;20227;-81
2023/10/30 05:36:10;;;;;;;4.60;1.20;;;;;;;11.96;89.16;99345.00;5007407;28;20237;-83
2023/10/30 05:38:37;;;;;;;2.23;0.93;;;;;;;11.99;88.67;99360.75;5013311;28;20584;-82
2023/10/30 05:41:03;;;;;;;3.23;1.17;;;;;;;11.98;89.24;99356.38;5007145;28;20216;-83
2023/10/30 05:43:30;;;;;;;4.07;0.97;;;;;;;11.97;89.30;99346.69;5000295;28;21355;-81
2023/10/30 05:45:57;;;;;;;3.43;0.90;;;;;;;11.96;88.55;99353.84;5017297;28;20237;-81
2023/10/30 05:48:23;;;;;;;5.27;1.00;;;;;;;11.91;89.20;99353.41;5003814;28;20207;-82
2023/10/30 05:50:50;;;;;;;4.43;1.00;;;;;;;11.93;88.91;99348.78;5008701;28;20211;-81
2023/10/30 05:53:18;;;;;;;3.97;1.03;;;;;;;11.97;89.13;99358.22;5004460;28;20202;-83
2023/10/30 05:55:44;;;;;;;4.40;1.10;;;;;;;11.96;88.84;99351.19;5018488;28;20229;-82
2023/10/30 05:58:12;;;;;;;4.57;0.90;;;;;;;11.94;89.26;99352.31;5000756;28;20264;-81
2023/10/30 06:00:38;;;;;;;4.47;0.90;;;;;;;11.98;88.82;99365.25;5009520;28;20825;-82
2023/10/30 06:03:07;;;;;;;3.20;1.07;;;;;;;11.98;88.59;99365.25;5007351;28;20217;-82
2023/10/30 06:05:33;;;;;;;5.33;0.90;;;;;;;11.94;89.18;99369.16;5007304;28;20222;-81
2023/10/30 06:08:00;;;;;;;3.03;0.70;;;;;;;11.96;89.40;99377.03;5003021;28;21466;-82
2023/10/30 06:10:28;;;;;;;7.40;1.13;;;;;;;11.97;88.69;99376.91;5001747;28;20219;-82
2023/10/30 06:12:55;;;;;;;2.67;0.73;;;;;;;12.01;88.98;99388.94;5002622;28;20211;-81
2023/10/30 06:15:22;;;;;;;4.77;0.93;;;;;;;11.99;88.72;99393.63;5007457;28;20253;-81
2023/10/30 06:17:48;;;;;;;4.13;0.83;;;;;;;11.97;89.10;99400.06;5004804;28;20567;-82
2023/10/30 06:20:14;;;;;;;4.87;1.20;;;;;;;11.94;89.37;99395.84;5002606;28;20202;-82
2023/10/30 06:22:41;;;;;;;5.07;0.93;;;;;;;11.93;89.47;99398.63;5001395;28;20234;-81
2023/10/30 06:25:09;;;;;;;4.43;1.10;;;;;;;11.94;89.52;99408.34;4998555;28;20948;-81
2023/10/30 06:27:37;;;;;;;3.70;0.90;;;;;;;11.95;89.57;99402.84;5004904;28;20263;-82
2023/10/30 06:30:04;;;;;;;4.63;1.10;;;;;;;11.93;89.43;99402.16;5006337;28;20219;-82
2023/10/30 06:32:32;;;;;;;4.67;0.97;;;;;;;11.96;89.73;99401.88;5003689;28;20252;-81
2023/10/30 06:34:59;;;;;;;4.33;0.90;;;;;;;11.94;89.65;99400.31;5006433;28;20459;-80
2023/10/30 06:37:25;;;;;;;2.77;0.70;;;;;;;11.91;89.68;99406.78;5004649;28;20230;-82
2023/10/30 06:39:52;;;;;;;3.97;0.97;;;;;;;11.94;89.72;99411.00;5007356;28;20210;-81
2023/10/30 06:42:18;;;;;;;3.53;1.50;;;;;;;11.93;89.92;99409.31;5004072;28;20217;-81
2023/10/30 06:44:46;;;;;;;4.23;1.20;;;;;;;11.94;90.06;99414.50;5008211;28;20654;-81
2023/10/30 06:47:13;;;;;;;2.43;0.90;;;;;;;11.97;89.96;99426.75;5006787;28;20230;-80
2023/10/30 06:49:39;;;;;;;4.47;1.00;;;;;;;11.95;90.13;99407.34;5002834;28;20214;-81
2023/10/30 06:52:06;;;;;;;2.73;1.03;;;;;;;11.93;90.25;99422.66;5001458;28;20628;-81
2023/10/30 06:54:32;;;;;;;2.87;1.30;;;;;;;11.94;90.30;99424.34;4997616;28;20328;-81
2023/10/30 06:56:59;;;;;;;4.00;1.17;;;;;;;11.99;90.33;99414.13;5002121;28;20234;-83
2023/10/30 06:59:27;;;;;;;4.57;1.07;;;;;;;11.98;90.61;99415.09;5002152;28;20214;-81
2023/10/30 07:01:54;;;;;;;4.87;1.00;;;;;;;11.91;90.67;99414.78;5008163;28;20208;-82
2023/10/30 07:04:22;;;;;;;3.80;0.90;;;;;;;11.90;91.09;99421.09;4997155;28;20206;-82
2023/10/30 07:06:50;;;;;;;5.47;1.60;;;;;;;11.88;91.23;99417.72;5000173;28;20290;-82
2023/10/30 07:09:17;;;;;;;3.60;1.17;;;;;;;11.91;91.59;99421.94;4998961;28;20467;-81
2023/10/30 07:11:45;;;;;;;3.20;0.90;;;;;;;11.92;91.26;99434.28;5007006;28;20218;-82
2023/10/30 07:14:11;;;;;;;3.87;1.07;;;;;;;11.97;91.07;99437.41;5004267;28;20234;-82
2023/10/30 07:16:38;;;;;;;4.27;1.50;;;;;;;11.96;91.17;99449.91;5006705;28;20224;-83
2023/10/30 07:19:06;;;;;;;7.33;1.13;;;;;;;11.94;91.30;99454.53;5013836;28;20226;-81
2023/10/30 07:21:32;;;;;;;6.30;2.47;;;;;;;11.98;91.08;99458.63;4995665;28;20609;-82
2023/10/30 07:23:58;;;;;;;7.27;2.90;;;;;;;11.98;91.14;99460.44;5003980;28;20570;-81
2023/10/30 07:26:25;;;;;;;4.17;1.77;;;;;;;11.97;91.56;99459.59;4998217;28;20712;-81
2023/10/30 07:28:53;;;;;;;4.93;1.87;;;;;;;12.00;91.50;99440.63;5001326;28;20656;-81
2023/10/30 07:31:20;;;;;;;5.90;1.30;;;;;;;11.99;91.31;99446.13;5008697;28;20217;-82
2023/10/30 07:33:49;;;;;;;4.80;2.33;;;;;;;12.01;91.55;99449.47;5003109;28;20285;-81
2023/10/30 07:36:17;;;;;;;6.67;2.70;;;;;;;11.98;92.09;99453.28;5001933;28;20712;-81
2023/10/30 07:38:43;;;;;;;8.90;2.93;;;;;;;11.99;91.98;99446.97;4999109;28;20293;-81
2023/10/30 07:41:16;;;;;;;4.33;1.13;;;;;;;11.99;92.45;99454.97;4999435;28;20219;-81
2023/10/30 07:43:43;;;;;;;6.10;2.47;;;;;;;11.99;92.23;99454.13;5002867;28;20209;-81
2023/10/30 07:46:13;;;;;;;6.80;2.40;;;;;;;12.02;92.21;99456.50;4997913;28;20237;-81
2023/10/30 07:48:39;;;;;;;6.37;1.80;;;;;;;12.01;92.16;99445.00;4997478;28;20212;-82
2023/10/30 07:51:06;;;;;;;3.53;1.10;;;;;;;12.08;92.45;99453.31;5003767;28;20209;-81
2023/10/30 07:53:34;;;;;;;2.70;1.30;;;;;;;12.11;92.14;99456.56;5003172;28;20203;-82
2023/10/30 07:56:00;;;;;;;3.97;1.53;;;;;;;12.11;92.33;99459.22;4997189;28;20232;-82
2023/10/30 07:58:26;;;;;;;5.37;1.20;;;;;;;12.18;92.11;99448.03;5019168;28;20203;-81
2023/10/30 08:00:53;;;;;;;4.67;1.30;;;;;;;12.19;91.98;99450.53;5005325;28;20211;-81
2023/10/30 08:03:19;;;;;;;5.33;1.60;;;;;;;12.19;91.92;99445.19;5003460;28;20207;-81
2023/10/30 08:05:46;;;;;;;8.07;1.80;;;;;;;12.20;92.55;99438.88;5017601;28;20217;-82
2023/10/30 08:08:13;;;;;;;9.80;5.33;;;;;;;12.21;92.22;99435.22;5002191;28;20634;-81
2023/10/30 08:10:41;;;;;;;6.20;1.33;;;;;;;12.26;91.80;99442.81;5005431;28;20208;-82
2023/10/30 08:13:08;;;;;;;3.83;1.20;;;;;;;12.29;91.23;99442.56;5004406;28;20215;-82
2023/10/30 08:15:35;;;;;;;5.27;1.60;;;;;;;12.32;91.31;99448.47;5002913;28;20231;-80
2023/10/30 08:18:03;;;;;;;5.27;2.03;;;;;;;12.33;91.13;99450.16;5005545;28;20213;-81
2023/10/30 08:20:30;;;;;;;3.53;1.20;;;;;;;12.37;90.56;99450.69;4997416;28;20204;-81
2023/10/30 08:22:57;;;;;;;3.30;0.97;;;;;;;12.40;90.25;99456.63;5001349;28;20210;-81
2023/10/30 08:25:25;;;;;;;5.03;1.40;;;;;;;12.40;90.82;99445.94;5004156;28;20207;-81
2023/10/30 08:27:53;;;;;;;3.33;1.20;;;;;;;12.41;90.83;99452.13;4999300;28;20211;-81
2023/10/30 08:30:20;;;;;;;3.70;1.40;;;;;;;12.49;90.28;99458.47;5003646;28;20707;-81
2023/10/30 08:32:46;;;;;;;6.57;2.00;;;;;;;12.53;90.56;99472.41;5007737;28;20296;-82
2023/10/30 08:35:13;;;;;;;3.07;0.90;;;;;;;12.51;90.22;99461.84;5012653;28;20586;-81
2023/10/30 08:37:39;;;;;;;3.47;1.20;;;;;;;12.52;89.83;99460.88;5006967;28;20207;-81
2023/10/30 08:40:08;;;;;;;2.90;0.80;;;;;;;12.56;89.96;99460.56;4996660;28;20208;-82
2023/10/30 08:42:34;;;;;;;5.40;2.00;;;;;;;12.59;89.59;99470.97;5006625;28;20210;-81
2023/10/30 08:45:03;;;;;;;6.50;2.17;;;;;;;12.55;90.14;99473.09;5000151;28;20201;-82
2023/10/30 08:47:29;;;;;;;5.13;1.73;;;;;;;12.54;90.02;99475.91;5010085;28;20287;-81
2023/10/30 08:49:56;;;;;;;3.97;1.37;;;;;;;12.51;89.76;99474.38;5011332;28;20209;-81
2023/10/30 08:52:22;;;;;;;6.77;1.80;;;;;;;12.50;89.97;99476.19;5023021;28;20219;-80
2023/10/30 08:54:49;;;;;;;3.17;0.90;;;;;;;12.51;90.06;99477.88;5017012;28;20223;-82
2023/10/30 08:57:19;;;;;;;5.37;1.47;;;;;;;12.57;90.08;99480.97;5007015;28;20234;-83
2023/10/30 08:59:45;;;;;;;7.47;1.43;;;;;;;12.58;89.75;99488.84;5010492;28;20260;-82
2023/10/30 09:02:13;;;;;;;4.87;1.43;;;;;;;12.56;89.65;99488.13;5005286;28;20218;-81
2023/10/30 09:04:40;;;;;;;3.93;1.23;;;;;;;12.67;88.95;99488.03;5000799;28;20686;-82
2023/10/30 09:07:06;;;;;;;3.93;1.70;;;;;;;12.67;88.88;99493.38;5005530;28;20231;-82
2023/10/30 09:09:33;;;;;;;4.00;1.07;;;;;;;12.76;88.75;99494.34;5012858;28;20204;-81
2023/10/30 09:12:00;;;;;;;4.30;1.47;;;;;;;12.84;89.02;99502.53;5006383;28;20664;-81
2023/10/30 09:14:26;;;;;;;4.40;1.20;;;;;;;12.90;88.85;99496.59;5007141;28;20705;-79
2023/10/30 09:16:53;;;;;;;3.30;1.30;;;;;;;13.01;87.91;99498.31;5015745;28;20234;-82
2023/10/30 09:19:21;;;;;;;5.53;2.13;;;;;;;13.10;88.20;99500.97;5005914;28;20234;-83
2023/10/30 09:21:47;;;;;;;4.87;1.20;;;;;;;13.24;88.21;99496.22;5001490;28;20210;-82
2023/10/30 09:24:17;;;;;;;4.40;1.70;;;;;;;13.36;88.22;99497.75;5007144;28;20691;-82
2023/10/30 09:26:43;;;;;;;3.90;0.93;;;;;;;13.50;87.43;99499.97;5007519;28;20219;-82
2023/10/30 09:29:10;;;;;;;2.90;1.30;;;;;;;13.61;86.64;99501.66;5006575;28;20207;-82
2023/10/30 09:31:37;;;;;;;4.27;1.07;;;;;;;13.71;85.69;99500.63;5007855;28;20207;-82
2023/10/30 09:34:04;;;;;;;5.67;1.87;;;;;;;13.80;85.52;99497.06;5004399;28;20214;-81
2023/10/30 09:36:32;;;;;;;3.90;1.23;;;;;;;13.87;85.32;99497.34;5004882;28;20240;-82
2023/10/30 09:38:58;;;;;;;4.80;1.43;;;;;;;13.97;84.70;99486.63;5006507;28;20207;-83
2023/10/30 09:41:28;;;;;;;4.00;0.93;;;;;;;14.05;84.38;99489.41;5007291;28;20207;-83
2023/10/30 09:43:55;;;;;;;7.17;1.40;;;;;;;14.11;83.95;99497.69;4994191;28;20212;-82
2023/10/30 09:46:27;;;;;;;4.67;1.20;;;;;;;14.21;83.37;99492.28;4997799;28;20226;-81
2023/10/30 09:48:56;;;;;;;5.50;0.87;;;;;;;14.28;82.11;99496.06;5005297;28;20212;-82
2023/10/30 09:51:23;;;;;;;2.57;0.97;;;;;;;14.30;82.87;99502.13;5010669;28;20207;-83
2023/10/30 09:53:53;;;;;;;3.93;1.23;;;;;;;14.36;82.11;99488.09;5004525;28;20576;-82
2023/10/30 09:56:21;;;;;;;4.17;0.80;;;;;;;14.43;81.31;99483.88;5005429;28;20307;-83
2023/10/30 09:58:48;;;;;;;4.17;1.30;;;;;;;14.49;81.69;99482.44;5007250;28;20224;-83
2023/10/30 10:01:17;;;;;;;3.00;0.90;;;;;;;14.55;80.33;99488.03;4996529;28;20222;-81
2023/10/30 10:03:44;;;;;;;3.37;0.90;;;;;;;14.63;79.92;99483.75;5010579;28;20218;-82
2023/10/30 10:06:10;;;;;;;3.33;0.87;;;;;;;14.73;80.03;99492.56;5001066;28;20259;-82
2023/10/30 10:08:37;;;;;;;4.60;1.17;;;;;;;14.75;79.88;99496.78;5001370;28;20212;-82
2023/10/30 10:11:06;;;;;;;4.93;1.37;;;;;;;14.75;79.39;99496.78;5004570;28;20217;-82
2023/10/30 10:13:37;;;;;;;4.23;0.90;;;;;;;14.85;78.34;99488.69;5017041;28;20268;-82
2023/10/30 10:16:04;;;;;;;2.47;0.97;;;;;;;14.88;77.36;99488.38;5008079;28;20247;-81
2023/10/30 10:18:32;;;;;;;4.63;1.00;;;;;;;14.89;77.45;99487.38;5005779;28;20212;-81
2023/10/30 10:21:00;;;;;;;5.27;1.37;;;;;;;14.92;77.92;99484.38;5005224;28;20265;-79
2023/10/30 10:23:30;;;;;;;5.83;1.60;;;;;;;14.99;78.56;99485.47;5007360;28;20212;-81
2023/10/30 10:25:57;;;;;;;4.60;1.27;;;;;;;15.04;77.80;99487.69;5015185;28;20751;-81
2023/10/30 10:28:25;;;;;;;4.17;1.00;;;;;;;15.06;77.82;99491.88;5007063;28;20227;-80
2023/10/30 10:30:53;;;;;;;4.30;0.90;;;;;;;15.09;76.49;99491.59;5006873;28;20204;-81
2023/10/30 10:33:21;;;;;;;3.23;0.80;;;;;;;15.15;76.27;99496.34;5002949;28;20276;-80
2023/10/30 10:35:48;;;;;;;3.13;0.70;;;;;;;15.20;75.04;99494.03;5007581;28;20234;-81
2023/10/30 10:38:16;;;;;;;2.13;0.50;;;;;;;15.25;74.04;99494.41;5001831;28;20223;-81
2023/10/30 10:40:46;;;;;;;1.83;0.83;;;;;;;15.23;74.30;99488.34;5004564;28;20201;-81
2023/10/30 10:43:14;;;;;;;3.97;1.03;;;;;;;15.23;74.19;99485.66;5002500;28;20212;-79
2023/10/30 10:45:43;;;;;;;4.30;1.10;;;;;;;15.23;74.17;99477.63;4998275;28;20227;-80
2023/10/30 10:48:09;;;;;;;1.60;0.50;;;;;;;15.28;73.40;99475.31;5008483;28;20226;-79
2023/10/30 10:50:36;;;;;;;2.63;0.70;;;;;;;15.29;74.00;99487.75;5005090;28;20215;-80
2023/10/30 10:53:04;;;;;;;2.47;1.00;;;;;;;15.31;73.75;99476.00;4996335;28;20216;-79
2023/10/30 10:55:34;;;;;;;2.37;0.73;;;;;;;15.34;73.71;99486.44;5001359;28;20219;-80
2023/10/30 10:58:08;;;;;;;2.57;0.70;;;;;;;15.35;73.66;99480.06;5000046;28;20207;-80
2023/10/30 11:00:38;;;;;;;2.97;0.80;;;;;;;15.37;73.66;99478.09;5003196;28;20200;-80
2023/10/30 11:03:08;;;;;;;2.37;0.90;;;;;;;15.41;73.80;99476.75;5004819;28;20220;-80
2023/10/30 11:05:35;;;;;;;2.53;0.60;;;;;;;15.42;74.12;99471.22;5005306;28;20225;-80
2023/10/30 11:08:13;;;;;;;6.80;1.33;;;;;;;15.47;73.93;99473.44;4999401;28;20205;-81
2023/10/30 11:10:45;;;;;;;2.07;0.60;;;;;;;15.49;73.20;99466.09;4999963;28;20708;-80
2023/10/30 11:13:20;;;;;;;2.47;0.70;;;;;;;15.52;72.66;99457.72;5005266;28;20212;-81
2023/10/30 11:15:53;;;;;;;1.47;0.60;;;;;;;15.52;72.54;99461.25;4998725;28;20237;-80
2023/10/30 11:18:24;;;;;;;2.10;0.43;;;;;;;15.56;72.77;99461.81;4998787;28;20343;-80
2023/10/30 11:21:07;;;;;;;4.17;0.60;;;;;;;15.56;71.87;99459.97;5001526;28;20212;-79
2023/10/30 11:23:48;;;;;;;1.53;0.70;;;;;;;15.57;71.27;99453.63;4997462;28;20230;-80
2023/10/30 11:26:37;;;;;;;1.43;0.40;;;;;;;15.58;71.76;99455.31;5005588;28;20229;-80
2023/10/30 11:29:07;;;;;;;1.03;0.50;;;;;;;15.56;71.15;99464.50;5000718;28;20627;-80
2023/10/30 11:31:51;;;;;;;3.90;1.13;;;;;;;15.54;71.31;99453.06;5001088;28;20211;-81
2023/10/30 11:34:23;;;;;;;1.87;0.60;;;;;;;15.55;71.26;99455.59;5001822;28;20292;-81